sensor_id;sensor_type;location;lat;lon;timestamp;temperature;humidity
2062;DHT22;11070;51.336;12.340;2023-04-06T00:01:36;4.00;1.00
2062;DHT22;11070;51.336;12.340;2023-04-06T00:04:02;4.10;1.00
2062;DHT22;11070;51.336;12.340;2023-04-06T00:06:28;4.10;1.00
2062;DHT22;11070;51.336;12.340;2023-04-06T00:08:55;4.00;1.00
2062;DHT22;11070;51.336;12.340;2023-04-06T00:11:21;3.90;1.00
2062;DHT22;11070;51.336;12.340;2023-04-06T00:13:47;3.90;1.00
2062;DHT22;11070;51.336;12.340;2023-04-06T00:16:13;3.90;1.00
2062;DHT22;11070;51.336;12.340;2023-04-06T00:18:39;3.90;1.00
2062;DHT22;11070;51.336;12.340;2023-04-06T00:21:05;3.80;1.00
2062;DHT22;11070;51.336;12.340;2023-04-06T00:23:31;3.90;1.00
2062;DHT22;11070;51.336;12.340;2023-04-06T00:25:56;3.80;1.00
2062;DHT22;11070;51.336;12.340;2023-04-06T00:28:22;3.80;1.00
2062;DHT22;11070;51.336;12.340;2023-04-06T00:30:54;3.90;1.00
2062;DHT22;11070;51.336;12.340;2023-04-06T00:33:21;3.90;1.00
2062;DHT22;11070;51.336;12.340;2023-04-06T00:35:47;3.90;1.00
2062;DHT22;11070;51.336;12.340;2023-04-06T00:38:13;4.00;1.00
2062;DHT22;11070;51.336;12.340;2023-04-06T00:40:39;4.00;1.00
2062;DHT22;11070;51.336;12.340;2023-04-06T00:43:08;4.00;1.00
2062;DHT22;11070;51.336;12.340;2023-04-06T00:45:34;4.00;1.00
2062;DHT22;11070;51.336;12.340;2023-04-06T00:48:00;4.00;1.00
2062;DHT22;11070;51.336;12.340;2023-04-06T00:50:27;4.00;1.00
2062;DHT22;11070;51.336;12.340;2023-04-06T00:52:54;4.00;1.00
2062;DHT22;11070;51.336;12.340;2023-04-06T00:55:20;4.00;1.00
2062;DHT22;11070;51.336;12.340;2023-04-06T00:57:46;4.10;1.00
2062;DHT22;11070;51.336;12.340;2023-04-06T01:00:12;4.10;1.00
2062;DHT22;11070;51.336;12.340;2023-04-06T01:02:38;4.00;1.00
2062;DHT22;11070;51.336;12.340;2023-04-06T01:05:04;4.00;1.00
2062;DHT22;11070;51.336;12.340;2023-04-06T01:07:30;4.00;1.00
2062;DHT22;11070;51.336;12.340;2023-04-06T01:09:56;4.00;1.00
2062;DHT22;11070;51.336;12.340;2023-04-06T01:12:22;3.90;1.00
2062;DHT22;11070;51.336;12.340;2023-04-06T01:14:48;3.90;1.00
2062;DHT22;11070;51.336;12.340;2023-04-06T01:17:14;3.90;1.00
2062;DHT22;11070;51.336;12.340;2023-04-06T01:19:39;3.90;1.00
2062;DHT22;11070;51.336;12.340;2023-04-06T01:22:06;3.90;1.00
2062;DHT22;11070;51.336;12.340;2023-04-06T01:24:33;4.00;1.00
2062;DHT22;11070;51.336;12.340;2023-04-06T01:26:58;4.10;1.00
2062;DHT22;11070;51.336;12.340;2023-04-06T01:29:24;4.10;1.00
2062;DHT22;11070;51.336;12.340;2023-04-06T01:31:50;4.00;1.00
2062;DHT22;11070;51.336;12.340;2023-04-06T01:34:16;4.00;1.00
2062;DHT22;11070;51.336;12.340;2023-04-06T01:36:42;4.00;1.00
2062;DHT22;11070;51.336;12.340;2023-04-06T01:39:08;3.90;1.00
2062;DHT22;11070;51.336;12.340;2023-04-06T01:41:34;3.90;1.00
2062;DHT22;11070;51.336;12.340;2023-04-06T01:44:00;4.00;1.00
2062;DHT22;11070;51.336;12.340;2023-04-06T01:46:26;3.90;1.00
2062;DHT22;11070;51.336;12.340;2023-04-06T01:48:52;3.90;1.00
2062;DHT22;11070;51.336;12.340;2023-04-06T01:51:17;3.90;1.00
2062;DHT22;11070;51.336;12.340;2023-04-06T01:53:43;3.90;1.00
2062;DHT22;11070;51.336;12.340;2023-04-06T01:56:09;3.90;1.00
2062;DHT22;11070;51.336;12.340;2023-04-06T01:58:35;3.90;1.00
2062;DHT22;11070;51.336;12.340;2023-04-06T02:01:01;3.90;1.00
2062;DHT22;11070;51.336;12.340;2023-04-06T02:03:26;3.90;1.00
2062;DHT22;11070;51.336;12.340;2023-04-06T02:05:52;3.90;1.00
2062;DHT22;11070;51.336;12.340;2023-04-06T02:08:18;3.80;1.00
2062;DHT22;11070;51.336;12.340;2023-04-06T02:10:44;3.80;1.00
2062;DHT22;11070;51.336;12.340;2023-04-06T02:13:09;3.70;1.00
2062;DHT22;11070;51.336;12.340;2023-04-06T02:15:35;3.60;1.00
2062;DHT22;11070;51.336;12.340;2023-04-06T02:18:01;3.60;1.00
2062;DHT22;11070;51.336;12.340;2023-04-06T02:20:26;3.50;1.00
2062;DHT22;11070;51.336;12.340;2023-04-06T02:22:52;3.50;1.00
2062;DHT22;11070;51.336;12.340;2023-04-06T02:25:18;3.50;4.20
2062;DHT22;11070;51.336;12.340;2023-04-06T02:27:43;3.50;61.40
2062;DHT22;11070;51.336;12.340;2023-04-06T02:30:10;3.40;74.60
2062;DHT22;11070;51.336;12.340;2023-04-06T02:32:35;3.40;98.30
2062;DHT22;11070;51.336;12.340;2023-04-06T02:35:01;3.40;99.90
2062;DHT22;11070;51.336;12.340;2023-04-06T02:37:27;3.40;99.90
2062;DHT22;11070;51.336;12.340;2023-04-06T02:39:52;3.30;99.90
2062;DHT22;11070;51.336;12.340;2023-04-06T02:42:18;3.30;99.90
2062;DHT22;11070;51.336;12.340;2023-04-06T02:44:44;3.30;99.90
2062;DHT22;11070;51.336;12.340;2023-04-06T02:47:10;3.30;99.90
2062;DHT22;11070;51.336;12.340;2023-04-06T02:49:36;3.30;99.90
2062;DHT22;11070;51.336;12.340;2023-04-06T02:52:02;3.40;99.90
2062;DHT22;11070;51.336;12.340;2023-04-06T02:54:27;3.30;99.90
2062;DHT22;11070;51.336;12.340;2023-04-06T02:56:53;3.30;99.90
2062;DHT22;11070;51.336;12.340;2023-04-06T02:59:19;3.20;99.90
2062;DHT22;11070;51.336;12.340;2023-04-06T03:01:45;3.20;99.90
2062;DHT22;11070;51.336;12.340;2023-04-06T03:04:11;3.30;99.90
2062;DHT22;11070;51.336;12.340;2023-04-06T03:06:36;3.30;99.90
2062;DHT22;11070;51.336;12.340;2023-04-06T03:09:03;3.30;99.90
2062;DHT22;11070;51.336;12.340;2023-04-06T03:11:28;3.20;99.90
2062;DHT22;11070;51.336;12.340;2023-04-06T03:13:54;3.30;99.90
2062;DHT22;11070;51.336;12.340;2023-04-06T03:16:20;3.20;99.90
2062;DHT22;11070;51.336;12.340;2023-04-06T03:18:45;3.20;1.00
2062;DHT22;11070;51.336;12.340;2023-04-06T03:21:13;3.20;1.00
2062;DHT22;11070;51.336;12.340;2023-04-06T03:23:40;3.10;1.00
2062;DHT22;11070;51.336;12.340;2023-04-06T03:26:06;3.10;1.00
2062;DHT22;11070;51.336;12.340;2023-04-06T03:28:32;3.10;1.00
2062;DHT22;11070;51.336;12.340;2023-04-06T03:36:09;3.00;1.00
2062;DHT22;11070;51.336;12.340;2023-04-06T03:38:35;3.00;1.00
2062;DHT22;11070;51.336;12.340;2023-04-06T03:41:00;2.90;1.00
2062;DHT22;11070;51.336;12.340;2023-04-06T03:43:26;2.80;1.00
2062;DHT22;11070;51.336;12.340;2023-04-06T03:45:52;2.80;1.00
2062;DHT22;11070;51.336;12.340;2023-04-06T03:48:17;2.70;99.90
2062;DHT22;11070;51.336;12.340;2023-04-06T03:50:43;2.70;99.90
2062;DHT22;11070;51.336;12.340;2023-04-06T03:53:09;2.60;99.90
2062;DHT22;11070;51.336;12.340;2023-04-06T03:55:34;2.60;99.90
2062;DHT22;11070;51.336;12.340;2023-04-06T03:58:00;2.60;1.00
2062;DHT22;11070;51.336;12.340;2023-04-06T04:00:27;2.60;1.00
2062;DHT22;11070;51.336;12.340;2023-04-06T04:02:52;2.50;1.00
2062;DHT22;11070;51.336;12.340;2023-04-06T04:05:18;2.50;1.00
2062;DHT22;11070;51.336;12.340;2023-04-06T04:07:44;2.50;1.00
2062;DHT22;11070;51.336;12.340;2023-04-06T04:10:10;2.40;1.00
2062;DHT22;11070;51.336;12.340;2023-04-06T04:12:36;2.40;40.30
2062;DHT22;11070;51.336;12.340;2023-04-06T04:15:01;2.30;99.90
2062;DHT22;11070;51.336;12.340;2023-04-06T04:17:28;2.30;99.90
2062;DHT22;11070;51.336;12.340;2023-04-06T04:19:54;2.30;99.90
2062;DHT22;11070;51.336;12.340;2023-04-06T04:22:19;2.30;1.00
2062;DHT22;11070;51.336;12.340;2023-04-06T04:24:45;2.20;1.00
2062;DHT22;11070;51.336;12.340;2023-04-06T04:27:11;2.20;1.00
2062;DHT22;11070;51.336;12.340;2023-04-06T04:32:02;2.20;1.00
2062;DHT22;11070;51.336;12.340;2023-04-06T04:34:28;2.20;1.00
2062;DHT22;11070;51.336;12.340;2023-04-06T04:36:54;2.20;1.00
2062;DHT22;11070;51.336;12.340;2023-04-06T04:39:20;2.30;1.00
2062;DHT22;11070;51.336;12.340;2023-04-06T04:41:45;2.20;1.00
2062;DHT22;11070;51.336;12.340;2023-04-06T04:44:11;2.20;1.00
2062;DHT22;11070;51.336;12.340;2023-04-06T04:46:37;2.20;1.00
2062;DHT22;11070;51.336;12.340;2023-04-06T04:49:03;2.30;1.00
2062;DHT22;11070;51.336;12.340;2023-04-06T04:51:28;2.20;1.00
2062;DHT22;11070;51.336;12.340;2023-04-06T04:53:55;2.30;1.00
2062;DHT22;11070;51.336;12.340;2023-04-06T04:56:21;2.30;1.00
2062;DHT22;11070;51.336;12.340;2023-04-06T04:58:47;2.40;1.00
2062;DHT22;11070;51.336;12.340;2023-04-06T05:01:12;2.40;1.00
2062;DHT22;11070;51.336;12.340;2023-04-06T05:03:38;2.50;99.90
2062;DHT22;11070;51.336;12.340;2023-04-06T05:06:05;2.50;99.90
2062;DHT22;11070;51.336;12.340;2023-04-06T05:08:33;2.50;99.90
2062;DHT22;11070;51.336;12.340;2023-04-06T05:10:59;2.60;1.00
2062;DHT22;11070;51.336;12.340;2023-04-06T05:13:25;2.60;1.00
2062;DHT22;11070;51.336;12.340;2023-04-06T05:15:51;2.70;1.00
2062;DHT22;11070;51.336;12.340;2023-04-06T05:18:16;2.60;1.00
2062;DHT22;11070;51.336;12.340;2023-04-06T05:20:43;2.70;1.00
2062;DHT22;11070;51.336;12.340;2023-04-06T05:23:08;2.70;1.00
2062;DHT22;11070;51.336;12.340;2023-04-06T05:25:35;2.80;99.90
2062;DHT22;11070;51.336;12.340;2023-04-06T05:28:01;2.80;99.90
2062;DHT22;11070;51.336;12.340;2023-04-06T05:30:26;2.80;99.90
2062;DHT22;11070;51.336;12.340;2023-04-06T05:32:52;2.90;99.90
2062;DHT22;11070;51.336;12.340;2023-04-06T05:35:18;2.90;99.90
2062;DHT22;11070;51.336;12.340;2023-04-06T05:37:44;2.90;99.90
2062;DHT22;11070;51.336;12.340;2023-04-06T05:40:09;3.00;99.90
2062;DHT22;11070;51.336;12.340;2023-04-06T05:42:39;3.00;99.90
2062;DHT22;11070;51.336;12.340;2023-04-06T05:45:07;3.10;58.60
2062;DHT22;11070;51.336;12.340;2023-04-06T05:47:33;3.20;1.00
2062;DHT22;11070;51.336;12.340;2023-04-06T05:49:58;3.20;1.00
2062;DHT22;11070;51.336;12.340;2023-04-06T05:52:24;3.30;1.00
2062;DHT22;11070;51.336;12.340;2023-04-06T05:54:50;3.40;1.00
2062;DHT22;11070;51.336;12.340;2023-04-06T05:57:19;3.50;1.00
2062;DHT22;11070;51.336;12.340;2023-04-06T05:59:44;3.60;99.90
2062;DHT22;11070;51.336;12.340;2023-04-06T06:02:10;3.60;99.90
2062;DHT22;11070;51.336;12.340;2023-04-06T06:04:36;3.80;99.90
2062;DHT22;11070;51.336;12.340;2023-04-06T06:07:02;3.90;99.90
2062;DHT22;11070;51.336;12.340;2023-04-06T06:09:28;4.00;90.80
2062;DHT22;11070;51.336;12.340;2023-04-06T06:11:54;4.10;1.00
2062;DHT22;11070;51.336;12.340;2023-04-06T06:14:19;4.40;1.00
2062;DHT22;11070;51.336;12.340;2023-04-06T06:16:47;4.80;1.00
2062;DHT22;11070;51.336;12.340;2023-04-06T06:19:13;5.10;1.00
2062;DHT22;11070;51.336;12.340;2023-04-06T06:21:39;5.20;99.90
2062;DHT22;11070;51.336;12.340;2023-04-06T06:24:06;5.50;1.00
2062;DHT22;11070;51.336;12.340;2023-04-06T06:26:32;6.00;99.90
2062;DHT22;11070;51.336;12.340;2023-04-06T06:28:58;6.60;99.90
2062;DHT22;11070;51.336;12.340;2023-04-06T06:31:24;6.60;99.90
2062;DHT22;11070;51.336;12.340;2023-04-06T06:33:50;6.60;99.90
2062;DHT22;11070;51.336;12.340;2023-04-06T06:36:17;6.80;99.90
2062;DHT22;11070;51.336;12.340;2023-04-06T06:38:43;6.70;99.90
2062;DHT22;11070;51.336;12.340;2023-04-06T06:41:10;6.80;99.90
2062;DHT22;11070;51.336;12.340;2023-04-06T06:43:35;6.70;99.90
2062;DHT22;11070;51.336;12.340;2023-04-06T06:46:01;6.70;99.90
2062;DHT22;11070;51.336;12.340;2023-04-06T06:48:27;6.40;99.90
2062;DHT22;11070;51.336;12.340;2023-04-06T06:50:53;6.30;99.90
2062;DHT22;11070;51.336;12.340;2023-04-06T06:53:19;6.50;99.90
2062;DHT22;11070;51.336;12.340;2023-04-06T06:55:45;6.60;99.90
2062;DHT22;11070;51.336;12.340;2023-04-06T06:58:11;6.60;99.90
2062;DHT22;11070;51.336;12.340;2023-04-06T07:00:37;6.50;99.90
2062;DHT22;11070;51.336;12.340;2023-04-06T07:03:02;6.30;99.90
2062;DHT22;11070;51.336;12.340;2023-04-06T07:05:28;6.30;99.90
2062;DHT22;11070;51.336;12.340;2023-04-06T07:07:55;6.60;99.90
2062;DHT22;11070;51.336;12.340;2023-04-06T07:10:21;6.70;99.90
2062;DHT22;11070;51.336;12.340;2023-04-06T07:12:46;6.80;99.90
2062;DHT22;11070;51.336;12.340;2023-04-06T07:15:12;6.50;99.90
2062;DHT22;11070;51.336;12.340;2023-04-06T07:17:38;6.40;99.90
2062;DHT22;11070;51.336;12.340;2023-04-06T07:20:04;6.40;99.90
2062;DHT22;11070;51.336;12.340;2023-04-06T07:22:30;7.00;99.90
2062;DHT22;11070;51.336;12.340;2023-04-06T07:24:56;7.40;99.90
2062;DHT22;11070;51.336;12.340;2023-04-06T07:27:21;7.40;99.90
2062;DHT22;11070;51.336;12.340;2023-04-06T07:29:47;7.70;99.90
2062;DHT22;11070;51.336;12.340;2023-04-06T07:32:13;7.90;99.90
2062;DHT22;11070;51.336;12.340;2023-04-06T07:34:38;7.60;99.90
2062;DHT22;11070;51.336;12.340;2023-04-06T07:37:04;7.80;99.90
2062;DHT22;11070;51.336;12.340;2023-04-06T07:39:30;8.30;99.90
2062;DHT22;11070;51.336;12.340;2023-04-06T07:41:56;8.70;99.90
2062;DHT22;11070;51.336;12.340;2023-04-06T07:44:22;9.20;99.90
2062;DHT22;11070;51.336;12.340;2023-04-06T07:46:48;9.30;99.90
2062;DHT22;11070;51.336;12.340;2023-04-06T07:49:13;9.10;99.90
2062;DHT22;11070;51.336;12.340;2023-04-06T07:51:39;8.90;99.90
2062;DHT22;11070;51.336;12.340;2023-04-06T07:54:05;8.80;99.90
2062;DHT22;11070;51.336;12.340;2023-04-06T07:56:31;9.30;99.90
2062;DHT22;11070;51.336;12.340;2023-04-06T07:58:57;9.30;99.90
2062;DHT22;11070;51.336;12.340;2023-04-06T08:01:24;9.50;99.90
2062;DHT22;11070;51.336;12.340;2023-04-06T08:03:50;11.10;99.90
2062;DHT22;11070;51.336;12.340;2023-04-06T08:06:16;11.00;99.90
2062;DHT22;11070;51.336;12.340;2023-04-06T08:08:42;11.00;99.90
2062;DHT22;11070;51.336;12.340;2023-04-06T08:11:09;11.40;99.90
2062;DHT22;11070;51.336;12.340;2023-04-06T08:13:35;12.40;99.90
2062;DHT22;11070;51.336;12.340;2023-04-06T08:16:01;12.70;99.90
2062;DHT22;11070;51.336;12.340;2023-04-06T08:18:27;13.40;99.90
2062;DHT22;11070;51.336;12.340;2023-04-06T08:20:54;13.50;99.90
2062;DHT22;11070;51.336;12.340;2023-04-06T08:23:20;12.90;99.90
2062;DHT22;11070;51.336;12.340;2023-04-06T08:25:46;13.20;99.90
2062;DHT22;11070;51.336;12.340;2023-04-06T08:28:12;12.50;99.90
2062;DHT22;11070;51.336;12.340;2023-04-06T08:30:40;12.50;99.90
2062;DHT22;11070;51.336;12.340;2023-04-06T08:33:06;13.80;99.90
2062;DHT22;11070;51.336;12.340;2023-04-06T08:35:31;14.90;99.90
2062;DHT22;11070;51.336;12.340;2023-04-06T08:37:57;13.50;99.90
2062;DHT22;11070;51.336;12.340;2023-04-06T08:40:23;13.20;99.90
2062;DHT22;11070;51.336;12.340;2023-04-06T08:42:55;14.60;99.90
2062;DHT22;11070;51.336;12.340;2023-04-06T08:45:21;14.40;99.90
2062;DHT22;11070;51.336;12.340;2023-04-06T08:47:52;15.20;99.90
2062;DHT22;11070;51.336;12.340;2023-04-06T08:50:19;15.40;99.90
2062;DHT22;11070;51.336;12.340;2023-04-06T08:52:48;14.30;99.90
2062;DHT22;11070;51.336;12.340;2023-04-06T08:55:15;15.10;99.90
2062;DHT22;11070;51.336;12.340;2023-04-06T08:57:42;16.70;99.90
2062;DHT22;11070;51.336;12.340;2023-04-06T09:00:10;17.60;99.90
2062;DHT22;11070;51.336;12.340;2023-04-06T09:02:39;17.10;99.90
2062;DHT22;11070;51.336;12.340;2023-04-06T09:05:07;16.50;99.90
2062;DHT22;11070;51.336;12.340;2023-04-06T09:07:33;16.70;99.90
2062;DHT22;11070;51.336;12.340;2023-04-06T09:09:59;15.90;99.90
2062;DHT22;11070;51.336;12.340;2023-04-06T09:12:29;17.00;99.90
2062;DHT22;11070;51.336;12.340;2023-04-06T09:14:56;17.80;99.90
2062;DHT22;11070;51.336;12.340;2023-04-06T09:17:24;18.50;99.90
2062;DHT22;11070;51.336;12.340;2023-04-06T09:19:51;17.70;99.90
2062;DHT22;11070;51.336;12.340;2023-04-06T09:22:17;17.80;99.90
2062;DHT22;11070;51.336;12.340;2023-04-06T09:25:01;18.70;99.90
2062;DHT22;11070;51.336;12.340;2023-04-06T09:27:45;18.00;99.90
2062;DHT22;11070;51.336;12.340;2023-04-06T09:30:11;19.00;99.90
2062;DHT22;11070;51.336;12.340;2023-04-06T09:32:52;19.90;99.90
2062;DHT22;11070;51.336;12.340;2023-04-06T09:35:19;19.50;99.90
2062;DHT22;11070;51.336;12.340;2023-04-06T09:37:47;19.90;99.90
2062;DHT22;11070;51.336;12.340;2023-04-06T09:40:13;20.00;99.90
2062;DHT22;11070;51.336;12.340;2023-04-06T09:42:42;19.00;99.90
2062;DHT22;11070;51.336;12.340;2023-04-06T09:45:08;18.90;99.90
2062;DHT22;11070;51.336;12.340;2023-04-06T09:47:36;19.50;99.90
2062;DHT22;11070;51.336;12.340;2023-04-06T09:50:03;20.20;99.90
2062;DHT22;11070;51.336;12.340;2023-04-06T09:52:33;20.40;99.90
2062;DHT22;11070;51.336;12.340;2023-04-06T09:55:04;21.50;99.90
2062;DHT22;11070;51.336;12.340;2023-04-06T09:57:52;21.00;99.90
2062;DHT22;11070;51.336;12.340;2023-04-06T10:00:22;18.80;99.90
2062;DHT22;11070;51.336;12.340;2023-04-06T10:08:05;17.40;99.90
2062;DHT22;11070;51.336;12.340;2023-04-06T10:10:32;17.30;99.90
2062;DHT22;11070;51.336;12.340;2023-04-06T10:12:58;18.60;99.90
2062;DHT22;11070;51.336;12.340;2023-04-06T10:15:24;19.10;99.90
2062;DHT22;11070;51.336;12.340;2023-04-06T10:17:54;20.30;99.90
2062;DHT22;11070;51.336;12.340;2023-04-06T10:23:08;19.60;99.90
2062;DHT22;11070;51.336;12.340;2023-04-06T10:25:35;20.00;99.90
2062;DHT22;11070;51.336;12.340;2023-04-06T10:28:08;20.00;99.90
2062;DHT22;11070;51.336;12.340;2023-04-06T10:30:34;19.80;99.90
2062;DHT22;11070;51.336;12.340;2023-04-06T10:33:01;20.00;99.90
2062;DHT22;11070;51.336;12.340;2023-04-06T10:35:37;21.00;99.90
2062;DHT22;11070;51.336;12.340;2023-04-06T10:38:04;20.30;99.90
2062;DHT22;11070;51.336;12.340;2023-04-06T10:40:31;20.50;99.90
2062;DHT22;11070;51.336;12.340;2023-04-06T10:43:22;19.60;99.90
2062;DHT22;11070;51.336;12.340;2023-04-06T10:45:59;18.90;99.90
2062;DHT22;11070;51.336;12.340;2023-04-06T10:48:25;17.90;99.90
2062;DHT22;11070;51.336;12.340;2023-04-06T10:51:01;19.10;99.90
2062;DHT22;11070;51.336;12.340;2023-04-06T10:53:27;19.30;99.90
2062;DHT22;11070;51.336;12.340;2023-04-06T10:55:56;18.70;99.90
2062;DHT22;11070;51.336;12.340;2023-04-06T10:58:27;18.90;99.90
2062;DHT22;11070;51.336;12.340;2023-04-06T11:00:54;19.50;99.90
2062;DHT22;11070;51.336;12.340;2023-04-06T11:03:20;19.50;99.90
2062;DHT22;11070;51.336;12.340;2023-04-06T11:05:49;17.60;99.90
2062;DHT22;11070;51.336;12.340;2023-04-06T11:08:41;16.50;99.90
2062;DHT22;11070;51.336;12.340;2023-04-06T11:11:17;16.70;99.90
2062;DHT22;11070;51.336;12.340;2023-04-06T11:13:53;18.80;99.90
2062;DHT22;11070;51.336;12.340;2023-04-06T11:16:20;22.20;99.90
2062;DHT22;11070;51.336;12.340;2023-04-06T11:18:58;22.40;99.90
2062;DHT22;11070;51.336;12.340;2023-04-06T11:21:42;23.00;99.90
2062;DHT22;11070;51.336;12.340;2023-04-06T11:24:20;19.80;99.90
2062;DHT22;11070;51.336;12.340;2023-04-06T11:26:56;18.90;99.90
2062;DHT22;11070;51.336;12.340;2023-04-06T11:29:27;18.50;99.90
2062;DHT22;11070;51.336;12.340;2023-04-06T11:32:02;19.30;99.90
2062;DHT22;11070;51.336;12.340;2023-04-06T11:34:29;18.80;99.90
2062;DHT22;11070;51.336;12.340;2023-04-06T11:36:57;19.20;99.90
2062;DHT22;11070;51.336;12.340;2023-04-06T11:39:25;19.60;99.90
2062;DHT22;11070;51.336;12.340;2023-04-06T11:41:54;20.30;99.90
2062;DHT22;11070;51.336;12.340;2023-04-06T11:44:37;18.60;99.90
2062;DHT22;11070;51.336;12.340;2023-04-06T11:47:09;19.20;99.90
2062;DHT22;11070;51.336;12.340;2023-04-06T11:49:40;21.00;99.90
2062;DHT22;11070;51.336;12.340;2023-04-06T11:54:44;22.40;99.90
2062;DHT22;11070;51.336;12.340;2023-04-06T11:57:10;22.80;99.90
2062;DHT22;11070;51.336;12.340;2023-04-06T11:59:36;23.50;99.90
2062;DHT22;11070;51.336;12.340;2023-04-06T12:02:03;22.90;99.90
2062;DHT22;11070;51.336;12.340;2023-04-06T12:04:29;22.30;99.90
2062;DHT22;11070;51.336;12.340;2023-04-06T12:06:55;20.50;99.90
2062;DHT22;11070;51.336;12.340;2023-04-06T12:09:21;19.40;99.90
2062;DHT22;11070;51.336;12.340;2023-04-06T12:11:47;20.90;99.90
2062;DHT22;11070;51.336;12.340;2023-04-06T12:14:13;19.90;99.90
2062;DHT22;11070;51.336;12.340;2023-04-06T12:16:39;19.70;99.90
2062;DHT22;11070;51.336;12.340;2023-04-06T12:19:05;20.40;99.90
2062;DHT22;11070;51.336;12.340;2023-04-06T12:21:31;20.20;99.90
2062;DHT22;11070;51.336;12.340;2023-04-06T12:23:59;18.90;99.90
2062;DHT22;11070;51.336;12.340;2023-04-06T12:26:26;19.30;99.90
2062;DHT22;11070;51.336;12.340;2023-04-06T12:28:52;19.70;99.90
2062;DHT22;11070;51.336;12.340;2023-04-06T12:31:20;19.70;99.90
2062;DHT22;11070;51.336;12.340;2023-04-06T12:33:47;19.50;99.90
2062;DHT22;11070;51.336;12.340;2023-04-06T12:36:18;19.40;99.90
2062;DHT22;11070;51.336;12.340;2023-04-06T12:38:46;19.30;99.90
2062;DHT22;11070;51.336;12.340;2023-04-06T12:41:12;18.20;99.90
2062;DHT22;11070;51.336;12.340;2023-04-06T12:43:40;18.60;99.90
2062;DHT22;11070;51.336;12.340;2023-04-06T12:46:06;19.80;99.90
2062;DHT22;11070;51.336;12.340;2023-04-06T12:48:31;21.40;99.90
2062;DHT22;11070;51.336;12.340;2023-04-06T12:50:59;18.40;99.90
2062;DHT22;11070;51.336;12.340;2023-04-06T12:53:25;17.80;99.90
2062;DHT22;11070;51.336;12.340;2023-04-06T12:55:53;17.10;99.90
2062;DHT22;11070;51.336;12.340;2023-04-06T12:58:19;17.50;99.90
2062;DHT22;11070;51.336;12.340;2023-04-06T13:00:44;17.20;99.90
2062;DHT22;11070;51.336;12.340;2023-04-06T13:03:11;16.80;99.90
2062;DHT22;11070;51.336;12.340;2023-04-06T13:05:43;17.80;99.90
2062;DHT22;11070;51.336;12.340;2023-04-06T13:08:10;18.40;99.90
2062;DHT22;11070;51.336;12.340;2023-04-06T13:10:36;20.10;99.90
2062;DHT22;11070;51.336;12.340;2023-04-06T13:13:02;20.90;99.90
2062;DHT22;11070;51.336;12.340;2023-04-06T13:15:28;21.60;99.90
2062;DHT22;11070;51.336;12.340;2023-04-06T13:17:54;21.90;99.90
2062;DHT22;11070;51.336;12.340;2023-04-06T13:20:19;20.40;99.90
2062;DHT22;11070;51.336;12.340;2023-04-06T13:22:45;19.90;99.90
2062;DHT22;11070;51.336;12.340;2023-04-06T13:25:11;18.60;99.90
2062;DHT22;11070;51.336;12.340;2023-04-06T13:27:37;17.20;99.90
2062;DHT22;11070;51.336;12.340;2023-04-06T13:30:03;16.90;99.90
2062;DHT22;11070;51.336;12.340;2023-04-06T13:32:29;18.20;99.90
2062;DHT22;11070;51.336;12.340;2023-04-06T13:34:55;19.90;99.90
2062;DHT22;11070;51.336;12.340;2023-04-06T13:37:21;21.30;99.90
2062;DHT22;11070;51.336;12.340;2023-04-06T13:39:47;20.80;99.90
2062;DHT22;11070;51.336;12.340;2023-04-06T13:42:12;20.00;99.90
2062;DHT22;11070;51.336;12.340;2023-04-06T13:44:38;20.60;99.90
2062;DHT22;11070;51.336;12.340;2023-04-06T13:47:04;22.10;99.90
2062;DHT22;11070;51.336;12.340;2023-04-06T13:49:30;21.70;99.90
2062;DHT22;11070;51.336;12.340;2023-04-06T13:51:55;21.40;99.90
2062;DHT22;11070;51.336;12.340;2023-04-06T13:54:21;22.80;99.90
2062;DHT22;11070;51.336;12.340;2023-04-06T13:56:47;23.00;99.90
2062;DHT22;11070;51.336;12.340;2023-04-06T13:59:12;23.80;99.90
2062;DHT22;11070;51.336;12.340;2023-04-06T14:01:38;23.90;99.90
2062;DHT22;11070;51.336;12.340;2023-04-06T14:04:04;24.00;99.90
2062;DHT22;11070;51.336;12.340;2023-04-06T14:06:29;24.10;99.90
2062;DHT22;11070;51.336;12.340;2023-04-06T14:08:55;24.30;99.90
2062;DHT22;11070;51.336;12.340;2023-04-06T14:11:22;23.00;99.90
2062;DHT22;11070;51.336;12.340;2023-04-06T14:13:51;22.60;99.90
2062;DHT22;11070;51.336;12.340;2023-04-06T14:16:16;20.90;99.90
2062;DHT22;11070;51.336;12.340;2023-04-06T14:18:45;20.30;99.90
2062;DHT22;11070;51.336;12.340;2023-04-06T14:21:10;19.80;99.90
2062;DHT22;11070;51.336;12.340;2023-04-06T14:23:36;19.10;99.90
2062;DHT22;11070;51.336;12.340;2023-04-06T14:26:06;19.70;99.90
2062;DHT22;11070;51.336;12.340;2023-04-06T14:28:34;20.60;99.90
2062;DHT22;11070;51.336;12.340;2023-04-06T14:31:00;21.30;99.90
2062;DHT22;11070;51.336;12.340;2023-04-06T14:33:26;21.40;99.90
2062;DHT22;11070;51.336;12.340;2023-04-06T14:35:53;21.50;99.90
2062;DHT22;11070;51.336;12.340;2023-04-06T14:38:18;21.60;99.90
2062;DHT22;11070;51.336;12.340;2023-04-06T14:40:44;20.20;99.90
2062;DHT22;11070;51.336;12.340;2023-04-06T14:43:10;20.50;99.90
2062;DHT22;11070;51.336;12.340;2023-04-06T14:45:35;19.80;99.90
2062;DHT22;11070;51.336;12.340;2023-04-06T14:48:02;18.70;99.90
2062;DHT22;11070;51.336;12.340;2023-04-06T14:50:31;18.30;99.90
2062;DHT22;11070;51.336;12.340;2023-04-06T14:52:56;17.80;99.90
2062;DHT22;11070;51.336;12.340;2023-04-06T14:55:22;18.30;99.90
2062;DHT22;11070;51.336;12.340;2023-04-06T14:57:48;17.50;99.90
2062;DHT22;11070;51.336;12.340;2023-04-06T15:00:14;17.10;99.90
2062;DHT22;11070;51.336;12.340;2023-04-06T15:02:40;17.00;99.90
2062;DHT22;11070;51.336;12.340;2023-04-06T15:05:08;16.80;99.90
2062;DHT22;11070;51.336;12.340;2023-04-06T15:07:34;16.20;99.90
2062;DHT22;11070;51.336;12.340;2023-04-06T15:10:00;15.80;99.90
2062;DHT22;11070;51.336;12.340;2023-04-06T15:12:25;16.00;99.90
2062;DHT22;11070;51.336;12.340;2023-04-06T15:14:51;16.30;99.90
2062;DHT22;11070;51.336;12.340;2023-04-06T15:17:17;16.90;99.90
2062;DHT22;11070;51.336;12.340;2023-04-06T15:19:42;17.80;99.90
2062;DHT22;11070;51.336;12.340;2023-04-06T15:22:08;18.60;99.90
2062;DHT22;11070;51.336;12.340;2023-04-06T15:24:33;19.40;99.90
2062;DHT22;11070;51.336;12.340;2023-04-06T15:26:59;19.60;99.90
2062;DHT22;11070;51.336;12.340;2023-04-06T15:29:25;19.80;99.90
2062;DHT22;11070;51.336;12.340;2023-04-06T15:31:51;20.10;99.90
2062;DHT22;11070;51.336;12.340;2023-04-06T15:34:17;20.20;99.90
2062;DHT22;11070;51.336;12.340;2023-04-06T15:36:43;20.30;99.90
2062;DHT22;11070;51.336;12.340;2023-04-06T15:39:11;20.50;99.90
2062;DHT22;11070;51.336;12.340;2023-04-06T15:41:38;20.50;99.90
2062;DHT22;11070;51.336;12.340;2023-04-06T15:44:03;19.60;99.90
2062;DHT22;11070;51.336;12.340;2023-04-06T15:46:29;18.70;99.90
2062;DHT22;11070;51.336;12.340;2023-04-06T15:48:55;18.60;99.90
2062;DHT22;11070;51.336;12.340;2023-04-06T15:51:21;18.50;99.90
2062;DHT22;11070;51.336;12.340;2023-04-06T15:53:48;18.60;99.90
2062;DHT22;11070;51.336;12.340;2023-04-06T15:56:14;18.00;99.90
2062;DHT22;11070;51.336;12.340;2023-04-06T15:58:40;16.70;99.90